Time;durP1;ratioP1;P1;durP2;ratioP2;P2;SDS_P1;SDS_P2;PMS_P1;PMS_P2;Temp;Humidity;BMP_temperature;BMP_pressure;BME280_temperature;BME280_humidity;BME280_pressure;Samples;Min_cycle;Max_cycle;Signal;HPM_P1;HPM_P2
2021/09/04 00:01:50;;;;;;;2.00;1.20;;;19.30;81.80;;;;;;5101565;28;20028;-64
2021/09/04 00:04:52;;;;;;;;;;;;;;;;;;;;;
2021/09/04 00:07:20;;;;;;;3.00;1.42;;;19.40;81.30;;;;;;5091841;28;20051;-66
2021/09/04 00:09:47;;;;;;;2.78;1.23;;;19.40;81.80;;;;;;5101288;28;20957;-63
2021/09/04 00:12:15;;;;;;;1.40;0.90;;;19.40;81.80;;;;;;5107619;28;20110;-69
2021/09/04 00:14:42;;;;;;;2.95;1.52;;;19.40;81.80;;;;;;5107702;28;20558;-63
2021/09/04 00:17:10;;;;;;;2.55;1.23;;;19.50;81.50;;;;;;5106918;28;20147;-56
2021/09/04 00:19:38;;;;;;;3.72;1.67;;;19.50;81.70;;;;;;5109892;28;20030;-58
2021/09/04 00:22:06;;;;;;;1.52;1.20;;;19.60;80.40;;;;;;5091392;28;20092;-72
2021/09/04 00:24:33;;;;;;;2.33;1.05;;;19.60;81.10;;;;;;5109609;28;20080;-62
2021/09/04 00:27:01;;;;;;;3.50;1.98;;;19.60;79.30;;;;;;5108932;28;20127;-70
2021/09/04 00:29:28;;;;;;;7.03;2.00;;;19.60;79.80;;;;;;5086842;28;20126;-74
2021/09/04 00:31:56;;;;;;;2.25;1.30;;;19.70;79.10;;;;;;5107183;28;20214;-69
2021/09/04 00:34:23;;;;;;;2.33;1.17;;;19.90;78.10;;;;;;5089022;28;20055;-67
2021/09/04 00:36:51;;;;;;;5.82;1.67;;;19.90;78.10;;;;;;5088975;28;20103;-60
2021/09/04 00:39:19;;;;;;;2.55;1.40;;;19.80;79.40;;;;;;5088822;28;20021;-61
2021/09/04 00:41:46;;;;;;;1.80;1.10;;;19.70;80.10;;;;;;5087875;28;20060;-57
2021/09/04 00:44:19;;;;;;;3.75;1.23;;;19.70;80.30;;;;;;5088988;28;20028;-57
2021/09/04 00:46:47;;;;;;;5.28;1.35;;;19.60;81.20;;;;;;5088908;28;20044;-55
2021/09/04 00:49:16;;;;;;;4.68;1.35;;;19.60;80.90;;;;;;5088482;28;20027;-54
2021/09/04 00:51:44;;;;;;;8.57;1.83;;;19.60;80.50;;;;;;5088358;28;20039;-58
2021/09/04 00:54:11;;;;;;;5.72;1.30;;;19.70;80.70;;;;;;5088982;28;20074;-61
2021/09/04 00:56:39;;;;;;;2.58;1.40;;;19.70;79.80;;;;;;5069995;28;20028;-58
2021/09/04 00:59:08;;;;;;;2.00;1.02;;;19.70;79.60;;;;;;5088622;28;20024;-67
2021/09/04 01:01:36;;;;;;;3.22;1.60;;;19.80;79.80;;;;;;5088395;28;20101;-57
2021/09/04 01:04:04;;;;;;;2.33;1.10;;;19.80;79.40;;;;;;5087881;28;20016;-62
2021/09/04 01:06:31;;;;;;;2.72;1.48;;;19.80;80.50;;;;;;5088130;28;20055;-60
2021/09/04 01:08:59;;;;;;;3.60;1.75;;;19.70;80.40;;;;;;5070008;28;20020;-61
2021/09/04 01:11:27;;;;;;;4.78;1.40;;;19.80;80.30;;;;;;5088556;28;20019;-70
2021/09/04 01:13:54;;;;;;;4.50;1.63;;;19.80;79.70;;;;;;5088435;28;20280;-64
2021/09/04 01:16:22;;;;;;;5.55;1.58;;;19.90;80.10;;;;;;5090001;28;20023;-59
2021/09/04 01:18:49;;;;;;;4.13;1.63;;;19.90;78.80;;;;;;5073723;28;20047;-68
2021/09/04 01:21:17;;;;;;;5.95;1.65;;;19.90;80.10;;;;;;5092873;28;20494;-59
2021/09/04 01:23:44;;;;;;;2.85;1.23;;;19.90;80.10;;;;;;5091796;28;20013;-54
2021/09/04 01:26:12;;;;;;;5.25;1.67;;;19.90;80.00;;;;;;5092361;28;20032;-55
2021/09/04 01:28:40;;;;;;;2.75;1.30;;;19.90;79.70;;;;;;5091069;28;20383;-59
2021/09/04 01:31:08;;;;;;;2.78;1.48;;;19.90;79.20;;;;;;5091971;28;20021;-54
2021/09/04 01:33:43;;;;;;;3.00;1.27;;;20.00;79.40;;;;;;5091805;28;20028;-64
2021/09/04 01:36:12;;;;;;;5.63;1.73;;;19.90;79.80;;;;;;5073211;28;20024;-62
2021/09/04 01:38:39;;;;;;;4.70;1.27;;;19.90;80.00;;;;;;5091250;28;20025;-60
2021/09/04 01:41:07;;;;;;;4.85;1.60;;;20.00;79.80;;;;;;5091645;28;20016;-55
2021/09/04 01:43:34;;;;;;;8.77;1.50;;;20.00;79.10;;;;;;5091504;28;20075;-62
2021/09/04 01:46:02;;;;;;;5.75;1.85;;;20.10;79.30;;;;;;5091786;28;20028;-60
2021/09/04 01:48:29;;;;;;;2.38;1.40;;;20.20;78.60;;;;;;5090874;28;20040;-63
2021/09/04 01:50:57;;;;;;;4.20;1.52;;;20.30;77.00;;;;;;5091122;28;20672;-67
2021/09/04 01:53:24;;;;;;;3.05;1.45;;;20.30;78.50;;;;;;5091609;28;20080;-62
2021/09/04 01:55:52;;;;;;;3.40;1.50;;;20.30;78.30;;;;;;5091114;28;20020;-69
2021/09/04 01:58:19;;;;;;;2.92;1.55;;;20.30;78.40;;;;;;5090687;28;20020;-61
2021/09/04 02:00:46;;;;;;;2.78;1.52;;;20.40;78.50;;;;;;5091025;28;20024;-61
2021/09/04 02:03:14;;;;;;;3.58;1.30;;;20.50;78.20;;;;;;5091198;28;20446;-64
2021/09/04 02:05:48;;;;;;;3.22;1.17;;;20.50;77.40;;;;;;5091545;28;20117;-60
2021/09/04 02:08:19;;;;;;;3.85;1.58;;;20.60;76.90;;;;;;5090939;28;20028;-62
2021/09/04 02:10:52;;;;;;;6.25;1.52;;;20.60;77.30;;;;;;5091813;28;20024;-60
2021/09/04 02:13:20;;;;;;;3.03;1.48;;;20.70;75.90;;;;;;5089520;28;20024;-66
2021/09/04 02:15:47;;;;;;;4.50;1.65;;;20.70;75.80;;;;;;5100716;28;20024;-65
2021/09/04 02:18:15;;;;;;;3.95;1.63;;;20.70;76.40;;;;;;5100179;28;20024;-58
2021/09/04 02:20:43;;;;;;;4.25;1.60;;;20.80;76.00;;;;;;5082266;28;20020;-63
2021/09/04 02:23:11;;;;;;;3.85;1.23;;;20.80;75.90;;;;;;5100327;28;20049;-66
2021/09/04 02:25:38;;;;;;;6.78;1.50;;;20.70;76.50;;;;;;5101171;28;20024;-73
2021/09/04 02:28:06;;;;;;;4.03;1.80;;;20.80;76.50;;;;;;5099541;28;20094;-70
2021/09/04 02:30:33;;;;;;;3.00;1.42;;;20.70;76.70;;;;;;5081818;28;20039;-58
2021/09/04 02:33:01;;;;;;;2.95;1.40;;;20.70;74.80;;;;;;5096546;28;20021;-63
2021/09/04 02:35:28;;;;;;;3.65;1.50;;;20.80;74.50;;;;;;5089861;28;20086;-64
2021/09/04 02:37:56;;;;;;;4.32;1.42;;;20.90;76.00;;;;;;5102078;28;20392;-70
2021/09/04 02:40:23;;;;;;;3.97;1.30;;;20.90;74.30;;;;;;5109855;28;20095;-64
2021/09/04 02:42:51;;;;;;;4.72;1.77;;;20.90;75.40;;;;;;5110763;28;20046;-64
2021/09/04 02:45:18;;;;;;;2.50;1.15;;;20.90;74.50;;;;;;5109441;28;20102;-65
2021/09/04 02:47:46;;;;;;;3.95;1.70;;;21.00;75.00;;;;;;5097632;28;20489;-69
2021/09/04 02:50:13;;;;;;;3.40;1.63;;;21.00;74.90;;;;;;5109288;28;20030;-64
2021/09/04 02:52:41;;;;;;;3.25;1.67;;;21.00;75.10;;;;;;5110147;28;20058;-68
2021/09/04 02:55:08;;;;;;;4.45;1.48;;;20.90;74.80;;;;;;5107964;28;20380;-75
2021/09/04 02:57:35;;;;;;;4.13;1.80;;;21.00;74.30;;;;;;5098321;28;20474;-69
2021/09/04 03:00:04;;;;;;;4.20;1.52;;;21.00;75.20;;;;;;5109614;28;20427;-67
2021/09/04 03:02:32;;;;;;;3.55;1.65;;;20.90;75.00;;;;;;5109914;28;20068;-62
2021/09/04 03:05:00;;;;;;;2.47;1.70;;;20.90;76.10;;;;;;5104706;28;20054;-66
2021/09/04 03:07:27;;;;;;;4.65;2.00;;;20.90;75.50;;;;;;5097981;28;20062;-64
2021/09/04 03:09:55;;;;;;;4.35;2.20;;;21.00;74.30;;;;;;5108011;28;20043;-65
2021/09/04 03:12:25;;;;;;;4.22;1.60;;;21.00;73.70;;;;;;5091135;28;20825;-64
2021/09/04 03:14:52;;;;;;;7.50;2.00;;;21.00;74.30;;;;;;5090247;28;20393;-64
2021/09/04 03:17:20;;;;;;;4.97;1.42;;;21.00;75.00;;;;;;5094900;28;20039;-64
2021/09/04 03:19:47;;;;;;;2.85;1.52;;;20.90;75.70;;;;;;5104448;28;20114;-71
2021/09/04 03:22:15;;;;;;;5.43;1.98;;;20.90;75.90;;;;;;5110786;28;20032;-65
2021/09/04 03:24:42;;;;;;;4.65;1.95;;;20.90;74.60;;;;;;5109019;28;20039;-68
2021/09/04 03:27:13;;;;;;;4.50;2.10;;;20.90;73.80;;;;;;5099906;28;20130;-65
2021/09/04 03:29:40;;;;;;;2.97;1.55;;;21.00;74.40;;;;;;5088012;28;20031;-66
2021/09/04 03:32:07;;;;;;;6.03;1.50;;;20.90;74.70;;;;;;5090241;28;20068;-67
2021/09/04 03:34:35;;;;;;;7.00;1.90;;;21.00;73.80;;;;;;5090727;28;20027;-67
2021/09/04 03:37:02;;;;;;;2.90;1.63;;;21.00;74.70;;;;;;5096337;28;20094;-65
2021/09/04 03:39:29;;;;;;;4.30;1.70;;;21.00;75.30;;;;;;5102526;28;20103;-67
2021/09/04 03:41:57;;;;;;;3.80;1.58;;;20.90;74.50;;;;;;5107779;28;20167;-73
2021/09/04 03:44:25;;;;;;;3.67;1.63;;;20.90;74.50;;;;;;5106661;28;20107;-70
2021/09/04 03:46:55;;;;;;;4.65;1.55;;;20.80;75.50;;;;;;5102715;28;20039;-65
2021/09/04 03:49:22;;;;;;;3.90;1.63;;;20.90;75.40;;;;;;5096000;28;20489;-68
2021/09/04 03:51:50;;;;;;;3.63;1.63;;;20.90;73.40;;;;;;5089835;28;20043;-67
2021/09/04 03:54:17;;;;;;;2.60;1.38;;;20.80;74.60;;;;;;5108104;28;20026;-69
2021/09/04 03:56:45;;;;;;;5.88;1.33;;;20.80;76.10;;;;;;5105493;28;20042;-66
2021/09/04 03:59:12;;;;;;;4.70;1.60;;;20.70;75.60;;;;;;5101426;28;20023;-68
2021/09/04 04:01:39;;;;;;;4.10;1.30;;;20.70;75.70;;;;;;5107750;28;20389;-68
2021/09/04 04:04:07;;;;;;;4.53;1.60;;;20.80;75.10;;;;;;5103805;28;20028;-64
2021/09/04 04:06:34;;;;;;;3.72;1.85;;;20.80;76.60;;;;;;5105662;28;20039;-64
2021/09/04 04:09:02;;;;;;;4.72;1.67;;;20.70;76.80;;;;;;5096183;28;20070;-67
2021/09/04 04:11:29;;;;;;;6.47;1.63;;;20.60;76.90;;;;;;5107140;28;20039;-66
2021/09/04 04:13:57;;;;;;;4.57;1.88;;;20.70;77.00;;;;;;5107836;28;20130;-71
2021/09/04 04:16:24;;;;;;;5.80;1.85;;;20.70;77.80;;;;;;5084953;28;20397;-66
2021/09/04 04:18:52;;;;;;;4.22;1.83;;;20.70;77.30;;;;;;5096781;28;20043;-67
2021/09/04 04:21:19;;;;;;;5.40;2.13;;;20.70;77.50;;;;;;5107443;28;20031;-69
2021/09/04 04:24:09;;;;;;;5.80;1.70;;;20.70;77.10;;;;;;5107971;28;20128;-70
2021/09/04 04:26:36;;;;;;;4.50;1.45;;;20.70;77.70;;;;;;5103971;28;20051;-64
2021/09/04 04:29:03;;;;;;;3.35;1.38;;;20.60;77.50;;;;;;5101423;28;20024;-70
2021/09/04 04:31:33;;;;;;;3.42;1.23;;;20.60;77.70;;;;;;5106640;28;20111;-66
2021/09/04 04:34:01;;;;;;;5.18;1.60;;;20.50;77.80;;;;;;5106302;28;20031;-68
2021/09/04 04:36:28;;;;;;;6.40;1.83;;;20.50;78.00;;;;;;5104798;28;20374;-67
2021/09/04 04:38:56;;;;;;;4.22;1.90;;;20.40;78.30;;;;;;5100696;28;20027;-65
2021/09/04 04:41:23;;;;;;;2.70;1.25;;;20.40;78.80;;;;;;5106931;28;20474;-65
2021/09/04 04:43:51;;;;;;;4.13;1.95;;;20.40;79.20;;;;;;5107587;28;20044;-67
2021/09/04 04:46:18;;;;;;;2.22;1.00;;;20.30;78.80;;;;;;5106157;28;20043;-68
2021/09/04 04:48:46;;;;;;;4.35;2.10;;;20.30;78.80;;;;;;5096698;28;20101;-63
2021/09/04 04:51:13;;;;;;;3.28;1.75;;;20.30;80.00;;;;;;5102524;28;20027;-65
2021/09/04 04:53:40;;;;;;;3.08;1.50;;;20.30;79.60;;;;;;5109128;28;20046;-67
2021/09/04 04:56:08;;;;;;;5.15;1.50;;;20.20;80.00;;;;;;5110501;28;20027;-60
2021/09/04 04:58:35;;;;;;;10.00;2.80;;;20.30;80.00;;;;;;5085586;28;20501;-67
2021/09/04 05:01:03;;;;;;;9.65;2.55;;;20.30;81.20;;;;;;5107252;28;20028;-62
2021/09/04 05:03:30;;;;;;;11.45;5.43;;;20.30;83.60;;;;;;5111495;27;20076;-63
2021/09/04 05:05:59;;;;;;;5.72;3.03;;;20.30;81.90;;;;;;5108170;28;20454;-59
2021/09/04 05:08:36;;;;;;;5.75;3.30;;;20.30;83.50;;;;;;5101190;27;20165;-65
2021/09/04 05:11:06;;;;;;;8.90;3.88;;;20.20;82.10;;;;;;5108619;28;20341;-66
2021/09/04 05:13:34;;;;;;;9.77;5.03;;;20.10;82.20;;;;;;5094240;28;20047;-63
2021/09/04 05:16:02;;;;;;;8.00;5.43;;;20.10;81.60;;;;;;5111425;28;20067;-64
2021/09/04 05:18:29;;;;;;;10.15;5.50;;;20.00;81.80;;;;;;5107323;28;20386;-65
2021/09/04 05:20:57;;;;;;;7.47;4.93;;;20.00;81.90;;;;;;5107087;28;20035;-61
2021/09/04 05:23:25;;;;;;;9.07;6.10;;;20.00;82.50;;;;;;5071912;28;20031;-63
2021/09/04 05:25:52;;;;;;;9.02;6.80;;;20.00;82.20;;;;;;5092387;28;20371;-66
2021/09/04 05:28:20;;;;;;;10.00;8.40;;;19.90;83.30;;;;;;5102854;28;20368;-67
2021/09/04 05:30:47;;;;;;;13.73;8.85;;;19.90;83.00;;;;;;5106526;28;20023;-62
2021/09/04 05:33:18;;;;;;;15.07;10.85;;;19.90;83.30;;;;;;5107027;28;20545;-64
2021/09/04 05:35:45;;;;;;;10.75;9.65;;;19.90;83.70;;;;;;5111836;28;20020;-61
2021/09/04 05:38:16;;;;;;;13.30;10.27;;;19.90;83.80;;;;;;5081079;28;20042;-68
2021/09/04 05:40:43;;;;;;;14.43;12.15;;;19.90;84.60;;;;;;5111316;28;20015;-68
2021/09/04 05:43:11;;;;;;;15.57;13.88;;;19.90;83.90;;;;;;5110529;28;20463;-69
2021/09/04 05:45:41;;;;;;;15.10;13.55;;;19.80;83.80;;;;;;5111954;28;20031;-68
2021/09/04 05:48:09;;;;;;;12.50;11.27;;;19.80;84.80;;;;;;5073821;28;20055;-67
2021/09/04 05:50:39;;;;;;;15.93;11.18;;;19.70;84.70;;;;;;5111629;28;20030;-72
2021/09/04 05:53:07;;;;;;;15.10;12.25;;;19.70;84.70;;;;;;5092895;28;20751;-65
2021/09/04 05:55:34;;;;;;;25.65;22.92;;;19.70;84.60;;;;;;5111638;28;20030;-64
2021/09/04 05:58:02;;;;;;;18.58;15.45;;;19.70;84.90;;;;;;5099642;28;20179;-68
2021/09/04 06:00:29;;;;;;;14.18;12.68;;;19.70;85.10;;;;;;5106736;28;20016;-60
2021/09/04 06:02:57;;;;;;;11.43;9.65;;;19.70;85.00;;;;;;5109779;28;20488;-65
2021/09/04 06:05:29;;;;;;;12.57;10.55;;;19.60;84.60;;;;;;5109947;28;20789;-62
2021/09/04 06:07:56;;;;;;;13.40;9.40;;;19.60;84.80;;;;;;5099418;28;20028;-59
2021/09/04 06:10:41;;;;;;;11.05;9.80;;;19.60;84.70;;;;;;5104738;28;20420;-62
2021/09/04 06:13:08;;;;;;;10.57;9.45;;;19.60;85.00;;;;;;5089391;28;20410;-60
2021/09/04 06:15:36;;;;;;;11.10;9.02;;;19.60;85.20;;;;;;5111773;28;20016;-66
2021/09/04 06:18:03;;;;;;;9.20;8.30;;;19.60;85.20;;;;;;5102246;28;20031;-62
2021/09/04 06:20:31;;;;;;;9.93;8.35;;;19.60;85.30;;;;;;5093313;28;20557;-70
2021/09/04 06:22:58;;;;;;;10.20;8.63;;;19.50;85.30;;;;;;5111249;28;20031;-65
2021/09/04 06:25:26;;;;;;;9.07;7.13;;;19.60;85.60;;;;;;5112460;28;20027;-64
2021/09/04 06:27:56;;;;;;;10.43;7.78;;;19.50;85.60;;;;;;5100991;28;20126;-64
2021/09/04 06:30:23;;;;;;;10.05;8.63;;;19.50;85.70;;;;;;5093363;28;20023;-63
2021/09/04 06:32:51;;;;;;;10.93;7.78;;;19.50;85.80;;;;;;5110389;28;20032;-73
2021/09/04 06:35:29;;;;;;;8.55;7.35;;;19.50;86.00;;;;;;5110641;28;20038;-70
2021/09/04 06:38:00;;;;;;;7.75;6.95;;;19.50;86.30;;;;;;5054539;28;20080;-61
2021/09/04 06:40:28;;;;;;;11.60;6.68;;;19.40;87.10;;;;;;5073936;28;20116;-69
2021/09/04 06:42:55;;;;;;;7.82;6.00;;;19.40;87.10;;;;;;5109322;28;20132;-68
2021/09/04 06:45:23;;;;;;;8.13;6.32;;;19.40;87.10;;;;;;5110808;28;20051;-67
2021/09/04 06:47:50;;;;;;;8.00;6.47;;;19.40;87.00;;;;;;5098358;28;20035;-70
2021/09/04 06:50:18;;;;;;;10.38;6.43;;;19.40;86.80;;;;;;5102619;28;20027;-72
2021/09/04 06:52:49;;;;;;;6.97;6.20;;;19.40;87.00;;;;;;5109125;28;20019;-66
2021/09/04 06:55:17;;;;;;;8.52;5.82;;;19.40;87.00;;;;;;5105029;28;20037;-67
2021/09/04 06:57:47;;;;;;;6.22;5.60;;;19.40;87.20;;;;;;5085225;28;20039;-70
2021/09/04 07:00:15;;;;;;;6.55;5.53;;;19.40;87.20;;;;;;5106629;28;20047;-60
2021/09/04 07:02:43;;;;;;;8.07;5.60;;;19.30;87.40;;;;;;5088709;28;20150;-65
2021/09/04 07:05:10;;;;;;;7.93;5.15;;;19.30;87.30;;;;;;5106032;28;20024;-64
2021/09/04 07:07:37;;;;;;;7.18;5.50;;;19.30;87.30;;;;;;5105010;28;20054;-66
2021/09/04 07:10:05;;;;;;;7.15;5.80;;;19.20;87.30;;;;;;5110013;28;20095;-69
2021/09/04 07:12:33;;;;;;;8.00;5.97;;;19.20;87.60;;;;;;5109142;28;20743;-65
2021/09/04 07:15:00;;;;;;;10.93;6.10;;;19.20;87.50;;;;;;5109112;27;20062;-66
2021/09/04 07:17:28;;;;;;;5.55;4.97;;;19.20;87.70;;;;;;5078197;28;20031;-66
2021/09/04 07:19:55;;;;;;;6.88;5.03;;;19.20;87.70;;;;;;5104887;28;20031;-67
2021/09/04 07:22:23;;;;;;;8.07;5.13;;;19.20;87.90;;;;;;5070143;28;20088;-61
2021/09/04 07:24:50;;;;;;;6.55;5.78;;;19.20;87.80;;;;;;5109102;27;20032;-67
2021/09/04 07:27:18;;;;;;;7.47;4.80;;;19.20;87.90;;;;;;5097088;28;20638;-61
2021/09/04 07:29:51;;;;;;;8.30;5.57;;;19.20;87.90;;;;;;5099469;28;20030;-63
2021/09/04 07:32:18;;;;;;;5.97;5.05;;;19.20;88.00;;;;;;5090776;28;20137;-73
2021/09/04 07:34:46;;;;;;;5.97;4.93;;;19.20;88.00;;;;;;5104335;28;20032;-64
2021/09/04 07:37:13;;;;;;;10.20;5.22;;;19.20;88.10;;;;;;5102358;28;20031;-66
2021/09/04 07:39:40;;;;;;;6.53;4.97;;;19.20;88.10;;;;;;5108536;28;20023;-63
2021/09/04 07:42:08;;;;;;;8.48;4.50;;;19.20;88.10;;;;;;5101177;28;20095;-69
2021/09/04 07:44:36;;;;;;;5.70;4.47;;;19.10;88.30;;;;;;5108965;28;20063;-70
2021/09/04 07:47:04;;;;;;;4.97;4.47;;;19.10;88.10;;;;;;5099097;28;20488;-65
2021/09/04 07:49:31;;;;;;;6.38;4.40;;;19.10;88.10;;;;;;5107081;28;20015;-66
2021/09/04 07:51:58;;;;;;;7.32;4.40;;;19.10;88.20;;;;;;5109051;28;20027;-66
2021/09/04 07:54:28;;;;;;;5.75;4.07;;;19.10;88.20;;;;;;5107841;28;20087;-64
2021/09/04 07:56:56;;;;;;;7.15;4.63;;;19.10;88.20;;;;;;5100475;28;20028;-65
2021/09/04 07:59:23;;;;;;;6.93;4.75;;;19.10;88.30;;;;;;5099825;28;20035;-68
2021/09/04 08:01:50;;;;;;;7.18;4.60;;;19.10;88.20;;;;;;5108847;28;20080;-67
2021/09/04 08:04:18;;;;;;;7.07;4.50;;;19.10;88.30;;;;;;5109512;28;20449;-67
2021/09/04 08:06:45;;;;;;;6.95;4.05;;;19.10;88.40;;;;;;5100594;28;20044;-64
2021/09/04 08:09:13;;;;;;;4.72;3.70;;;19.10;88.30;;;;;;5083418;28;20051;-64
2021/09/04 08:11:40;;;;;;;5.45;4.00;;;19.10;88.30;;;;;;5089665;28;20114;-61
2021/09/04 08:14:07;;;;;;;5.10;4.00;;;19.10;88.40;;;;;;5089561;28;20060;-64
2021/09/04 08:16:38;;;;;;;6.75;4.47;;;19.10;88.50;;;;;;5105850;28;20051;-60
2021/09/04 08:19:06;;;;;;;5.35;3.88;;;19.00;88.40;;;;;;5096760;28;20069;-64
2021/09/04 08:21:33;;;;;;;6.03;4.05;;;19.10;88.50;;;;;;5108336;28;20029;-66
2021/09/04 08:24:00;;;;;;;6.43;4.10;;;19.00;88.40;;;;;;5108312;28;20030;-73
2021/09/04 08:26:28;;;;;;;6.13;3.88;;;19.00;88.40;;;;;;5108090;28;20130;-68
2021/09/04 08:28:57;;;;;;;5.88;3.92;;;19.00;88.40;;;;;;5100339;28;20106;-66
2021/09/04 08:31:24;;;;;;;4.10;3.58;;;19.00;88.50;;;;;;5105078;28;20020;-64
2021/09/04 08:33:52;;;;;;;5.88;3.90;;;19.00;88.40;;;;;;5091409;28;20046;-72
2021/09/04 08:36:27;;;;;;;5.22;4.13;;;19.00;88.60;;;;;;5109262;28;20497;-71
2021/09/04 08:38:57;;;;;;;6.07;3.78;;;19.00;88.60;;;;;;5075838;28;20111;-64
2021/09/04 08:41:26;;;;;;;4.80;3.40;;;19.00;88.50;;;;;;5108378;28;20066;-68
2021/09/04 08:43:54;;;;;;;6.78;3.88;;;19.00;88.50;;;;;;5108781;28;20080;-63
2021/09/04 08:46:21;;;;;;;5.32;3.83;;;19.00;88.50;;;;;;5104649;28;20035;-66
2021/09/04 08:48:50;;;;;;;5.10;3.80;;;19.00;88.50;;;;;;5071362;28;20763;-67
2021/09/04 08:51:21;;;;;;;5.57;3.90;;;18.90;88.50;;;;;;5106858;28;20039;-67
2021/09/04 08:53:48;;;;;;;5.75;3.42;;;18.90;88.60;;;;;;5107981;28;20565;-68
2021/09/04 08:56:16;;;;;;;4.22;3.67;;;19.00;88.70;;;;;;5103943;28;20020;-67
2021/09/04 08:58:43;;;;;;;9.32;3.80;;;19.00;88.80;;;;;;5093275;28;20036;-66
2021/09/04 09:01:18;;;;;;;4.32;3.38;;;18.90;89.20;;;;;;5107585;28;20038;-64
2021/09/04 09:03:49;;;;;;;5.80;3.88;;;18.90;88.50;;;;;;5081218;28;20034;-66
2021/09/04 09:06:28;;;;;;;4.45;3.28;;;18.90;88.50;;;;;;5102548;28;20031;-66
2021/09/04 09:08:57;;;;;;;5.93;3.58;;;18.90;88.80;;;;;;5098870;28;20027;-67
2021/09/04 09:11:25;;;;;;;4.57;2.60;;;18.90;88.60;;;;;;5085251;28;20476;-61
2021/09/04 09:13:56;;;;;;;4.70;3.10;;;18.90;88.60;;;;;;5104664;28;20063;-65
2021/09/04 09:16:26;;;;;;;4.50;3.80;;;18.90;88.60;;;;;;5102727;28;20040;-66
2021/09/04 09:19:01;;;;;;;4.97;3.40;;;18.90;88.60;;;;;;5080822;28;20030;-63
2021/09/04 09:21:33;;;;;;;4.35;3.58;;;18.90;88.60;;;;;;5101578;28;20027;-67
2021/09/04 09:24:13;;;;;;;7.22;3.58;;;18.80;88.50;;;;;;5103574;28;20028;-64
2021/09/04 09:27:00;;;;;;;24.23;11.23;;;18.80;88.70;;;;;;5103515;28;20190;-65
2021/09/04 09:29:36;;;;;;;69.35;31.27;;;18.80;88.70;;;;;;5103746;28;20027;-71
2021/09/04 09:32:19;;;;;;;115.28;51.65;;;18.80;88.70;;;;;;5087177;28;20188;-64
2021/09/04 09:35:03;;;;;;;148.57;63.90;;;18.80;88.60;;;;;;5108785;28;20022;-64
2021/09/04 09:37:34;;;;;;;180.32;81.03;;;18.80;88.80;;;;;;5099858;28;20036;-66
2021/09/04 09:40:01;;;;;;;199.77;93.68;;;18.80;88.50;;;;;;5110568;28;20474;-63
2021/09/04 09:42:29;;;;;;;216.23;101.57;;;18.80;88.60;;;;;;5113075;28;20036;-71
2021/09/04 09:44:57;;;;;;;244.63;115.53;;;18.80;88.90;;;;;;5088696;28;20027;-69
2021/09/04 09:47:24;;;;;;;245.93;118.45;;;18.80;88.70;;;;;;5100810;28;20040;-62
2021/09/04 09:49:52;;;;;;;254.10;120.22;;;18.80;89.00;;;;;;5110676;28;20039;-67
2021/09/04 09:52:19;;;;;;;260.55;121.78;;;18.80;88.90;;;;;;5091012;28;20055;-68
2021/09/04 09:54:47;;;;;;;237.57;113.50;;;18.80;89.00;;;;;;5109273;28;20069;-66
2021/09/04 09:57:15;;;;;;;263.52;125.70;;;18.80;89.30;;;;;;5102611;28;20032;-64
2021/09/04 09:59:46;;;;;;;258.70;126.25;;;18.80;89.10;;;;;;5104841;28;20539;-69
2021/09/04 10:02:15;;;;;;;270.48;131.35;;;18.80;89.20;;;;;;5107430;28;20036;-62
2021/09/04 10:04:47;;;;;;;281.90;132.85;;;18.80;89.20;;;;;;5111156;28;20446;-66
2021/09/04 10:07:16;;;;;;;273.33;135.07;;;18.80;89.30;;;;;;5098483;28;20440;-63
2021/09/04 10:09:45;;;;;;;281.73;138.00;;;18.80;89.20;;;;;;5107709;28;20447;-65
2021/09/04 10:12:13;;;;;;;272.05;134.18;;;18.80;89.20;;;;;;5106813;28;20046;-66
2021/09/04 10:14:41;;;;;;;277.98;138.40;;;18.80;89.40;;;;;;5111057;28;20024;-61
2021/09/04 10:17:10;;;;;;;261.95;135.90;;;18.70;89.50;;;;;;5106575;28;20024;-64
2021/09/04 10:19:41;;;;;;;256.35;131.98;;;18.70;89.20;;;;;;5111867;28;20020;-65
2021/09/04 10:22:12;;;;;;;266.10;132.55;;;18.80;89.30;;;;;;5112638;28;20016;-67
2021/09/04 10:24:48;;;;;;;260.35;128.18;;;18.70;89.20;;;;;;5110329;28;20020;-67
2021/09/04 10:27:36;;;;;;;258.55;131.02;;;18.70;89.20;;;;;;5101841;28;20481;-67
2021/09/04 10:30:33;;;;;;;220.02;107.80;;;18.70;89.20;;;;;;5110826;28;20050;-66
2021/09/04 10:33:11;;;;;;;247.43;125.28;;;18.70;90.30;;;;;;5089290;28;20490;-64
2021/09/04 10:35:43;;;;;;;263.45;131.55;;;18.70;90.00;;;;;;5110291;28;20409;-69
2021/09/04 10:38:20;;;;;;;244.98;129.00;;;18.70;89.70;;;;;;5104814;28;20019;-70
2021/09/04 10:40:53;;;;;;;262.08;136.05;;;18.70;89.50;;;;;;5110336;28;20401;-69
2021/09/04 10:43:22;;;;;;;262.88;135.07;;;18.70;89.60;;;;;;5110286;28;20054;-68
2021/09/04 10:45:51;;;;;;;255.32;131.40;;;18.70;89.70;;;;;;5110336;28;20550;-68
2021/09/04 10:48:19;;;;;;;251.30;133.65;;;18.70;89.60;;;;;;5084748;28;20043;-65
2021/09/04 10:51:04;;;;;;;265.35;137.95;;;18.70;89.60;;;;;;5109768;28;20370;-66
2021/09/04 10:54:01;;;;;;;248.15;128.25;;;18.70;89.60;;;;;;5106633;28;20026;-65
2021/09/04 10:56:32;;;;;;;268.35;135.23;;;18.60;89.50;;;;;;5086473;28;20027;-66
2021/09/04 10:59:00;;;;;;;256.52;132.52;;;18.70;89.80;;;;;;5099018;28;20023;-64
2021/09/04 11:01:47;;;;;;;247.57;128.43;;;18.60;89.60;;;;;;5106394;28;20355;-64
2021/09/04 11:04:28;;;;;;;252.82;132.10;;;18.70;89.70;;;;;;5085478;28;20432;-65
2021/09/04 11:06:57;;;;;;;253.30;129.13;;;18.60;89.70;;;;;;5106424;27;20043;-61
2021/09/04 11:09:49;;;;;;;245.93;131.57;;;18.60;89.70;;;;;;5099621;28;20024;-60
2021/09/04 11:12:17;;;;;;;252.75;129.93;;;18.60;89.80;;;;;;5107720;28;20103;-65
2021/09/04 11:14:48;;;;;;;242.68;130.07;;;18.60;89.80;;;;;;5108931;28;20019;-65
2021/09/04 11:17:19;;;;;;;242.80;126.97;;;18.60;89.70;;;;;;5100864;28;20491;-63
2021/09/04 11:19:46;;;;;;;249.52;132.05;;;18.60;89.70;;;;;;5105128;28;20080;-72
2021/09/04 11:22:17;;;;;;;244.48;126.05;;;18.60;89.70;;;;;;5110101;28;20026;-58
2021/09/04 11:24:47;;;;;;;255.15;132.13;;;18.60;89.80;;;;;;5072573;28;20024;-61
2021/09/04 11:27:21;;;;;;;234.20;125.57;;;18.60;89.70;;;;;;5102505;28;20044;-55
2021/09/04 11:29:53;;;;;;;244.23;127.57;;;18.60;89.60;;;;;;5108439;28;20110;-62
2021/09/04 11:32:31;;;;;;;240.77;126.10;;;18.60;89.90;;;;;;5109096;28;20021;-62
2021/09/04 11:35:04;;;;;;;230.05;122.45;;;18.60;89.70;;;;;;5108878;28;20028;-62
2021/09/04 11:37:36;;;;;;;226.82;120.45;;;18.60;89.70;;;;;;5101039;28;20103;-67
2021/09/04 11:40:25;;;;;;;227.38;121.95;;;18.60;89.70;;;;;;5105982;28;20030;-63
2021/09/04 11:42:52;;;;;;;230.48;125.03;;;18.60;89.80;;;;;;5107045;28;20073;-63
2021/09/04 11:45:25;;;;;;;230.40;121.40;;;18.60;89.80;;;;;;5109787;28;20484;-67
2021/09/04 11:47:57;;;;;;;219.77;119.63;;;18.60;89.80;;;;;;5080412;28;20552;-60
2021/09/04 11:50:37;;;;;;;225.38;123.10;;;18.60;89.80;;;;;;5108112;28;20059;-62
2021/09/04 11:53:27;;;;;;;206.18;113.85;;;18.60;89.70;;;;;;5101390;28;20079;-64
2021/09/04 11:55:56;;;;;;;207.48;113.90;;;18.60;89.60;;;;;;5109717;27;20016;-62
2021/09/04 11:58:26;;;;;;;204.05;109.55;;;18.60;89.80;;;;;;5097553;28;20537;-65
2021/09/04 12:01:03;;;;;;;208.75;110.55;;;18.60;89.90;;;;;;5109265;28;20020;-67
2021/09/04 12:03:31;;;;;;;216.63;115.10;;;18.60;89.90;;;;;;5092070;28;20016;-62
2021/09/04 12:05:58;;;;;;;207.27;109.00;;;18.60;89.90;;;;;;5108966;28;20385;-69
2021/09/04 12:08:29;;;;;;;205.35;110.78;;;18.60;89.90;;;;;;5098522;28;20031;-69
2021/09/04 12:11:22;;;;;;;203.05;109.57;;;18.60;89.90;;;;;;5099936;28;20016;-63
2021/09/04 12:13:51;;;;;;;203.02;110.70;;;18.60;89.70;;;;;;5066766;28;20055;-65
2021/09/04 12:16:19;;;;;;;208.45;111.90;;;18.60;89.70;;;;;;5088768;28;20016;-59
2021/09/04 12:18:46;;;;;;;196.50;105.28;;;18.60;89.80;;;;;;5088203;28;20054;-67
2021/09/04 12:21:22;;;;;;;197.80;103.47;;;18.60;90.00;;;;;;5088769;28;20008;-66
2021/09/04 12:24:05;;;;;;;192.48;104.72;;;18.60;89.90;;;;;;5088358;28;20032;-63
2021/09/04 12:26:34;;;;;;;190.23;101.75;;;18.60;90.00;;;;;;5088233;28;20039;-63
2021/09/04 12:29:11;;;;;;;190.65;102.97;;;18.50;90.00;;;;;;5088338;28;20105;-71
2021/09/04 12:31:47;;;;;;;186.70;103.50;;;18.50;90.00;;;;;;5070525;28;20063;-70
2021/09/04 12:34:35;;;;;;;180.13;98.60;;;18.50;90.00;;;;;;5089393;28;20366;-68
2021/09/04 12:37:03;;;;;;;176.35;96.90;;;18.50;90.00;;;;;;5072240;28;20110;-67
2021/09/04 12:39:31;;;;;;;178.93;95.38;;;18.50;90.00;;;;;;5088445;28;20027;-65
2021/09/04 12:42:05;;;;;;;181.75;98.13;;;18.50;90.10;;;;;;5088787;28;20055;-65
2021/09/04 12:44:40;;;;;;;178.82;93.72;;;18.50;90.10;;;;;;5070323;28;20035;-72
2021/09/04 12:47:09;;;;;;;169.40;93.72;;;18.40;90.10;;;;;;5088676;28;20772;-71
2021/09/04 12:49:51;;;;;;;165.18;94.20;;;18.40;90.10;;;;;;5088540;28;20054;-62